Terminal Aerodrome Forecast
Issued by NWS Melbourne, FL

Home | Current Version | Previous Version | Text Only | Print | Product List | Glossary On
Versions: 1 2 3 4 5 6 7 8 9 10 11 12
031
FTUS42 KMLB 031139
TAFMLB
TAF
KMLB 031139Z 0312/0412 33006KT P6SM BKN140 BKN350
     FM031500 05012KT P6SM SCT035 SCT350
     FM040000 06007KT P6SM SCT035 SCT350=

USA.gov is the U.S. government's official web portal to all federal, state and local government web resources and services.